createdAt,value
2019-03-05T00:00:01.785Z,60
2019-03-05T00:01:01.768Z,61
2019-03-05T00:02:01.810Z,61
2019-03-05T00:03:01.790Z,61
2019-03-05T00:04:01.806Z,61
2019-03-05T00:05:01.820Z,61
2019-03-05T00:06:01.841Z,60
2019-03-05T00:07:01.816Z,60
2019-03-05T00:08:01.846Z,60
2019-03-05T00:09:01.912Z,60
2019-03-05T00:10:01.867Z,60
2019-03-05T00:11:01.882Z,60
2019-03-05T00:12:01.916Z,60
2019-03-05T00:13:01.900Z,60
2019-03-05T00:14:01.904Z,61
2019-03-05T00:15:01.951Z,60
2019-03-05T00:16:01.958Z,60
2019-03-05T00:17:04.451Z,60
2019-03-05T00:18:01.929Z,61
2019-03-05T00:19:01.944Z,60
2019-03-05T00:20:02.100Z,60
2019-03-05T00:21:01.962Z,60
2019-03-05T00:22:01.955Z,61
2019-03-05T00:23:01.962Z,60
2019-03-05T00:24:02.020Z,60
2019-03-05T00:25:01.977Z,60
2019-03-05T00:26:01.998Z,60
2019-03-05T00:27:02.042Z,60
2019-03-05T00:28:02.025Z,61
2019-03-05T00:29:01.985Z,61
2019-03-05T00:30:01.998Z,61
2019-03-05T00:31:02.023Z,61
2019-03-05T00:32:02.034Z,60
2019-03-05T00:33:02.084Z,61
2019-03-05T00:34:02.117Z,60
2019-03-05T00:35:02.223Z,60
2019-03-05T00:36:02.208Z,60
2019-03-05T00:37:02.239Z,60
2019-03-05T00:38:02.291Z,60
2019-03-05T00:39:02.849Z,60
2019-03-05T00:40:17.663Z,60
2019-03-05T00:41:02.417Z,60
2019-03-05T00:42:02.526Z,60
2019-03-05T00:43:02.673Z,60
2019-03-05T00:44:02.587Z,60
2019-03-05T00:45:02.569Z,60
2019-03-05T00:46:02.600Z,60
2019-03-05T00:47:02.635Z,60
2019-03-05T00:48:02.716Z,60
2019-03-05T00:49:02.730Z,60
2019-03-05T00:50:02.748Z,60
2019-03-05T00:51:02.809Z,60
2019-03-05T00:52:02.821Z,60
2019-03-05T00:53:02.869Z,60
2019-03-05T00:54:02.857Z,60
2019-03-05T00:55:02.889Z,60
2019-03-05T00:56:02.931Z,60
2019-03-05T00:57:03.033Z,60
2019-03-05T00:58:02.985Z,60
2019-03-05T00:59:03.021Z,60
2019-03-05T01:00:03.057Z,60
2019-03-05T01:01:03.089Z,60
2019-03-05T01:02:03.077Z,60
2019-03-05T01:03:03.147Z,60
2019-03-05T01:04:03.143Z,60
2019-03-05T01:05:03.159Z,60
2019-03-05T01:06:03.217Z,60
2019-03-05T01:07:05.224Z,60
2019-03-05T01:08:03.267Z,60
2019-03-05T01:09:03.256Z,61
2019-03-05T01:10:03.278Z,60
2019-03-05T01:11:03.302Z,61
2019-03-05T01:12:03.326Z,60
2019-03-05T01:13:03.694Z,60
2019-03-05T01:14:03.469Z,60
2019-03-05T01:15:03.385Z,60
2019-03-05T01:16:03.398Z,60
2019-03-05T01:17:06.079Z,60
2019-03-05T01:18:03.439Z,59
2019-03-05T01:19:03.442Z,59
2019-03-05T01:20:03.514Z,59
2019-03-05T01:21:03.512Z,59
2019-03-05T01:22:03.545Z,59
2019-03-05T01:23:03.580Z,60
2019-03-05T01:24:03.726Z,60
2019-03-05T01:25:03.619Z,60
2019-03-05T01:26:03.580Z,60
2019-03-05T01:27:03.656Z,59
2019-03-05T01:28:03.663Z,60
2019-03-05T01:29:03.616Z,60
2019-03-05T01:30:03.623Z,59
2019-03-05T01:31:03.626Z,60
2019-03-05T01:32:03.679Z,59
2019-03-05T01:33:03.693Z,59
2019-03-05T01:34:03.677Z,59
2019-03-05T01:35:03.683Z,59
2019-03-05T01:36:03.691Z,60
2019-03-05T01:37:03.787Z,59
2019-03-05T01:38:03.723Z,59
2019-03-05T01:39:03.762Z,59
2019-03-05T01:40:03.814Z,59
2019-03-05T01:41:03.741Z,59
2019-03-05T01:42:03.784Z,59
2019-03-05T01:43:03.767Z,58
2019-03-05T01:44:03.755Z,58
2019-03-05T01:45:03.774Z,58
2019-03-05T01:46:03.785Z,58
2019-03-05T01:47:03.766Z,58
2019-03-05T01:48:03.825Z,58
2019-03-05T01:49:03.774Z,58
2019-03-05T01:50:03.783Z,58
2019-03-05T01:51:04.322Z,58
2019-03-05T01:52:03.811Z,59
2019-03-05T01:53:03.792Z,60
2019-03-05T01:54:03.893Z,59
2019-03-05T01:55:03.905Z,58
2019-03-05T01:56:03.999Z,59
2019-03-05T01:57:03.931Z,59
2019-03-05T01:58:03.984Z,59
2019-03-05T01:59:04.006Z,58
2019-03-05T02:00:04.089Z,59
2019-03-05T02:01:04.106Z,58
2019-03-05T02:02:04.143Z,58
2019-03-05T02:03:04.236Z,58
2019-03-05T02:04:04.294Z,58
2019-03-05T02:05:04.276Z,58
2019-03-05T02:06:04.311Z,58
2019-03-05T02:07:04.333Z,58
2019-03-05T02:08:04.346Z,58
2019-03-05T02:09:04.473Z,58
2019-03-05T02:10:04.437Z,58
2019-03-05T02:11:04.494Z,58
2019-03-05T02:12:04.516Z,58
2019-03-05T02:13:04.557Z,58
2019-03-05T02:14:04.577Z,58
2019-03-05T02:15:04.612Z,58
2019-03-05T02:16:04.678Z,58
2019-03-05T02:17:04.709Z,58
2019-03-05T02:18:04.719Z,59
2019-03-05T02:19:04.776Z,58
2019-03-05T02:20:04.776Z,58
2019-03-05T02:21:04.823Z,58
2019-03-05T02:22:04.836Z,58
2019-03-05T02:23:04.897Z,58
2019-03-05T02:24:04.922Z,58
2019-03-05T02:25:05.009Z,58
2019-03-05T02:26:04.972Z,58
2019-03-05T02:27:04.972Z,58
2019-03-05T02:28:05.018Z,58
2019-03-05T02:29:05.188Z,59
2019-03-05T02:30:05.312Z,59
2019-03-05T02:31:05.154Z,58
2019-03-05T02:32:05.159Z,58
2019-03-05T02:33:05.175Z,58
2019-03-05T02:34:05.194Z,58
2019-03-05T02:35:05.290Z,58
2019-03-05T02:36:05.261Z,58
2019-03-05T02:37:05.291Z,58
2019-03-05T02:38:05.996Z,58
2019-03-05T02:39:05.336Z,58
2019-03-05T02:40:05.389Z,58
2019-03-05T02:41:05.386Z,59
2019-03-05T02:42:05.431Z,59
2019-03-05T02:43:05.454Z,59
2019-03-05T02:44:05.469Z,59
2019-03-05T02:45:05.511Z,59
2019-03-05T02:46:05.496Z,59
2019-03-05T02:47:05.541Z,59
2019-03-05T02:48:05.558Z,59
2019-03-05T02:49:05.581Z,59
2019-03-05T02:50:05.631Z,59
2019-03-05T02:51:05.617Z,59
2019-03-05T02:52:05.629Z,59
2019-03-05T02:53:05.639Z,59
2019-03-05T02:54:05.651Z,59
2019-03-05T02:55:05.649Z,59
2019-03-05T02:56:05.748Z,59
2019-03-05T02:57:05.731Z,59
2019-03-05T02:58:05.725Z,59
2019-03-05T02:59:05.744Z,59
2019-03-05T03:00:05.794Z,59
2019-03-05T03:01:05.800Z,60
2019-03-05T03:02:05.966Z,59
2019-03-05T03:03:05.820Z,59
2019-03-05T03:04:05.841Z,59
2019-03-05T03:05:05.828Z,59
2019-03-05T03:06:05.848Z,59
2019-03-05T03:07:05.870Z,59
2019-03-05T03:08:05.848Z,59
2019-03-05T03:09:05.885Z,59
2019-03-05T03:10:05.874Z,59
2019-03-05T03:11:05.912Z,59
2019-03-05T03:12:05.915Z,59
2019-03-05T03:13:05.954Z,59
2019-03-05T03:14:05.927Z,59
2019-03-05T03:15:05.957Z,59
2019-03-05T03:16:08.427Z,59
2019-03-05T03:17:05.959Z,59
2019-03-05T03:18:05.983Z,59
2019-03-05T03:19:05.999Z,59
2019-03-05T03:20:05.986Z,60
2019-03-05T03:21:06.061Z,60
2019-03-05T03:22:06.050Z,60
2019-03-05T03:23:06.049Z,60
2019-03-05T03:24:06.046Z,60
2019-03-05T03:25:06.053Z,60
2019-03-05T03:26:06.099Z,60
2019-03-05T03:27:06.154Z,60
2019-03-05T03:28:06.079Z,60
2019-03-05T03:29:06.080Z,60
2019-03-05T03:30:06.068Z,60
2019-03-05T03:31:06.233Z,60
2019-03-05T03:32:06.198Z,60
2019-03-05T03:33:06.127Z,61
2019-03-05T03:34:06.144Z,60
2019-03-05T03:35:06.119Z,60
2019-03-05T03:36:06.081Z,60
2019-03-05T03:37:06.092Z,60
2019-03-05T03:38:06.133Z,60
2019-03-05T03:39:06.274Z,60
2019-03-05T03:40:06.306Z,60
2019-03-05T03:41:06.180Z,59
2019-03-05T03:42:06.139Z,60
2019-03-05T03:43:06.119Z,60
2019-03-05T03:44:06.223Z,59
2019-03-05T03:45:06.151Z,60
2019-03-05T03:46:06.147Z,59
2019-03-05T03:47:06.127Z,60
2019-03-05T03:48:06.162Z,59
2019-03-05T03:49:06.201Z,59
2019-03-05T03:50:06.152Z,59
2019-03-05T03:51:06.139Z,59
2019-03-05T03:52:06.166Z,59
2019-03-05T03:53:06.187Z,59
2019-03-05T03:54:06.268Z,60
2019-03-05T03:55:06.295Z,59
2019-03-05T03:56:06.293Z,59
2019-03-05T03:57:06.335Z,60
2019-03-05T03:58:06.379Z,59
2019-03-05T03:59:06.401Z,59
2019-03-05T04:00:06.421Z,59
2019-03-05T04:01:07.120Z,59
2019-03-05T04:02:06.505Z,59
2019-03-05T04:03:06.533Z,59
2019-03-05T04:04:06.544Z,59
2019-03-05T04:05:06.577Z,59
2019-03-05T04:06:06.602Z,59
2019-03-05T04:07:06.665Z,59
2019-03-05T04:08:06.672Z,59
2019-03-05T04:09:06.731Z,59
2019-03-05T04:10:06.749Z,59
2019-03-05T04:11:06.752Z,58
2019-03-05T04:12:06.800Z,58
2019-03-05T04:13:06.836Z,58
2019-03-05T04:14:06.800Z,59
2019-03-05T04:15:06.831Z,58
2019-03-05T04:16:06.888Z,58
2019-03-05T04:17:06.866Z,58
2019-03-05T04:18:06.931Z,58
2019-03-05T04:19:06.904Z,58
2019-03-05T04:20:06.940Z,58
2019-03-05T04:21:06.935Z,58
2019-03-05T04:22:06.982Z,58
2019-03-05T04:23:06.973Z,58
2019-03-05T04:24:07.035Z,58
2019-03-05T04:25:07.063Z,58
2019-03-05T04:26:07.028Z,58
2019-03-05T04:27:07.041Z,58
2019-03-05T04:28:07.063Z,58
2019-03-05T04:29:07.063Z,58
2019-03-05T04:30:07.111Z,58
2019-03-05T04:31:07.659Z,59
2019-03-05T04:32:07.099Z,59
2019-03-05T04:33:07.122Z,58
2019-03-05T04:34:07.141Z,58
2019-03-05T04:35:07.139Z,58
2019-03-05T04:36:07.142Z,57
2019-03-05T04:37:07.204Z,57
2019-03-05T04:38:07.159Z,58
2019-03-05T04:39:07.186Z,57
2019-03-05T04:40:07.200Z,57
2019-03-05T04:41:07.194Z,57
2019-03-05T04:42:07.251Z,57
2019-03-05T04:43:07.242Z,57
2019-03-05T04:44:07.255Z,57
2019-03-05T04:45:07.417Z,57
2019-03-05T04:46:07.242Z,57
2019-03-05T04:47:07.256Z,57
2019-03-05T04:48:07.247Z,57
2019-03-05T04:49:07.231Z,57
2019-03-05T04:50:07.261Z,57
2019-03-05T04:51:07.243Z,57
2019-03-05T04:52:07.260Z,57
2019-03-05T04:53:07.249Z,57
2019-03-05T04:54:07.305Z,57
2019-03-05T04:55:07.324Z,57
2019-03-05T04:56:07.281Z,57
2019-03-05T04:57:07.297Z,57
2019-03-05T04:58:07.315Z,57
2019-03-05T04:59:07.361Z,57
2019-03-05T05:00:07.335Z,57
2019-03-05T05:01:09.618Z,57
2019-03-05T05:02:07.417Z,57
2019-03-05T05:03:07.431Z,57
2019-03-05T05:04:07.475Z,57
2019-03-05T05:05:07.606Z,57
2019-03-05T05:06:07.564Z,57
2019-03-05T05:07:07.635Z,57
2019-03-05T05:08:07.677Z,57
2019-03-05T05:09:10.142Z,57
2019-03-05T05:10:07.783Z,57
2019-03-05T05:11:07.838Z,57
2019-03-05T05:12:07.767Z,57
2019-03-05T05:13:07.874Z,57
2019-03-05T05:14:07.907Z,57
2019-03-05T05:15:07.981Z,57
2019-03-05T05:16:07.962Z,57
2019-03-05T05:17:07.982Z,56
2019-03-05T05:18:07.976Z,57
2019-03-05T05:19:08.010Z,57
2019-03-05T05:20:08.034Z,56
2019-03-05T05:21:08.063Z,57
2019-03-05T05:22:08.111Z,56
2019-03-05T05:23:08.106Z,56
2019-03-05T05:24:08.181Z,56
2019-03-05T05:25:08.193Z,56
2019-03-05T05:26:08.173Z,56
2019-03-05T05:27:08.243Z,56
2019-03-05T05:28:08.240Z,57
2019-03-05T05:29:08.254Z,56
2019-03-05T05:30:08.346Z,56
2019-03-05T05:31:08.370Z,56
2019-03-05T05:32:08.338Z,56
2019-03-05T05:33:08.426Z,57
2019-03-05T05:34:08.432Z,57
2019-03-05T05:35:08.431Z,56
2019-03-05T05:36:08.477Z,56
2019-03-05T05:37:08.437Z,56
2019-03-05T05:38:08.509Z,56
2019-03-05T05:39:08.546Z,56
2019-03-05T05:40:08.516Z,56
2019-03-05T05:41:08.573Z,56
2019-03-05T05:42:08.579Z,56
2019-03-05T05:43:08.614Z,56
2019-03-05T05:44:08.629Z,56
2019-03-05T05:45:08.641Z,56
2019-03-05T05:46:08.675Z,56
2019-03-05T05:47:08.694Z,56
2019-03-05T05:48:08.706Z,56
2019-03-05T05:49:08.700Z,56
2019-03-05T05:50:08.716Z,56
2019-03-05T05:51:08.756Z,56
2019-03-05T05:52:08.791Z,56
2019-03-05T05:53:08.796Z,56
2019-03-05T05:54:08.776Z,57
2019-03-05T05:55:08.789Z,57
2019-03-05T05:56:08.854Z,56
2019-03-05T05:57:08.844Z,56
2019-03-05T05:58:08.823Z,56
2019-03-05T05:59:08.892Z,56
2019-03-05T06:00:08.845Z,57
2019-03-05T06:01:08.856Z,56
2019-03-05T06:02:08.868Z,56
2019-03-05T06:03:08.912Z,56
2019-03-05T06:04:08.919Z,57
2019-03-05T06:05:08.911Z,57
2019-03-05T06:06:08.941Z,57
2019-03-05T06:07:08.940Z,56
2019-03-05T06:08:08.941Z,57
2019-03-05T06:09:08.958Z,56
2019-03-05T06:10:09.064Z,57
2019-03-05T06:11:09.013Z,56
2019-03-05T06:12:08.941Z,56
2019-03-05T06:13:08.959Z,56
2019-03-05T06:14:08.967Z,56
2019-03-05T06:15:08.972Z,56
2019-03-05T06:16:08.999Z,57
2019-03-05T06:17:08.965Z,57
2019-03-05T06:18:08.964Z,57
2019-03-05T06:19:08.978Z,57
2019-03-05T06:20:08.998Z,57
2019-03-05T06:21:09.048Z,57
2019-03-05T06:22:09.114Z,57
2019-03-05T06:23:09.211Z,57
2019-03-05T06:24:10.202Z,57
2019-03-05T06:25:09.209Z,57
2019-03-05T06:26:09.215Z,57
2019-03-05T06:27:09.288Z,56
2019-03-05T06:28:09.303Z,56
2019-03-05T06:29:09.392Z,56
2019-03-05T06:30:09.377Z,56
2019-03-05T06:31:09.419Z,56
2019-03-05T06:32:09.424Z,56
2019-03-05T06:33:09.551Z,56
2019-03-05T06:34:09.515Z,56
2019-03-05T06:35:09.523Z,56
2019-03-05T06:36:09.574Z,56
2019-03-05T06:37:09.605Z,57
2019-03-05T06:38:09.655Z,57
2019-03-05T06:39:09.667Z,57
2019-03-05T06:40:09.685Z,57
2019-03-05T06:41:09.737Z,56
2019-03-05T06:42:09.795Z,56
2019-03-05T06:43:09.785Z,56
2019-03-05T06:44:09.862Z,56
2019-03-05T06:45:09.821Z,56
2019-03-05T06:46:09.893Z,56
2019-03-05T06:47:09.906Z,56
2019-03-05T06:48:09.916Z,55
2019-03-05T06:49:10.435Z,55
2019-03-05T06:50:10.031Z,55
2019-03-05T06:51:09.998Z,55
2019-03-05T06:52:11.784Z,55
2019-03-05T06:53:10.093Z,55
2019-03-05T06:54:10.112Z,54
2019-03-05T06:55:10.123Z,54
2019-03-05T06:56:10.192Z,54
2019-03-05T06:57:10.192Z,54
2019-03-05T06:58:11.782Z,54
2019-03-05T06:59:10.219Z,54
2019-03-05T07:00:10.219Z,54
2019-03-05T07:01:10.279Z,54
2019-03-05T07:02:10.299Z,54
2019-03-05T07:03:10.302Z,53
2019-03-05T07:04:12.561Z,54
2019-03-05T07:05:10.456Z,54
2019-03-05T07:06:10.409Z,53
2019-03-05T07:07:10.395Z,53
2019-03-05T07:08:12.903Z,53
2019-03-05T07:09:10.429Z,53
2019-03-05T07:10:10.463Z,53
2019-03-05T07:11:10.497Z,53
2019-03-05T07:12:10.538Z,54
2019-03-05T07:13:10.572Z,55
2019-03-05T07:14:10.535Z,55
2019-03-05T07:15:10.613Z,57
2019-03-05T07:16:10.568Z,59
2019-03-05T07:17:10.630Z,61
2019-03-05T07:18:11.171Z,63
2019-03-05T07:19:10.611Z,64
2019-03-05T07:20:10.737Z,65
2019-03-05T07:21:10.655Z,65
2019-03-05T07:22:10.674Z,65
2019-03-05T07:23:10.693Z,66
2019-03-05T07:24:10.664Z,67
2019-03-05T07:25:10.701Z,67
2019-03-05T07:26:10.742Z,67
2019-03-05T07:27:10.720Z,67
2019-03-05T07:28:10.712Z,67
2019-03-05T07:29:10.765Z,67
2019-03-05T07:30:10.773Z,66
2019-03-05T07:31:10.821Z,66
2019-03-05T07:32:10.826Z,66
2019-03-05T07:33:10.783Z,66
2019-03-05T07:34:10.875Z,66
2019-03-05T07:35:10.880Z,66
2019-03-05T07:36:10.924Z,66
2019-03-05T07:37:10.852Z,66
2019-03-05T07:38:10.865Z,65
2019-03-05T07:39:10.883Z,64
2019-03-05T07:40:10.883Z,63
2019-03-05T07:41:10.948Z,62
2019-03-05T07:42:10.894Z,62
2019-03-05T07:43:10.914Z,62
2019-03-05T07:44:10.891Z,61
2019-03-05T07:45:10.917Z,60
2019-03-05T07:46:10.925Z,60
2019-03-05T07:47:10.945Z,59
2019-03-05T07:48:13.146Z,58
2019-03-05T07:49:10.932Z,57
2019-03-05T07:50:10.957Z,57
2019-03-05T07:51:10.962Z,56
2019-03-05T07:52:10.960Z,54
2019-03-05T07:53:10.951Z,55
2019-03-05T07:54:10.968Z,54
2019-03-05T07:55:13.759Z,54
2019-03-05T07:56:11.006Z,55
2019-03-05T07:57:10.989Z,54
2019-03-05T07:58:10.938Z,55
2019-03-05T07:59:11.007Z,54
2019-03-05T08:00:10.972Z,54
2019-03-05T08:01:21.479Z,54
2019-03-05T08:02:10.985Z,53
2019-03-05T08:03:10.987Z,53
2019-03-05T08:04:11.008Z,52
2019-03-05T08:05:10.989Z,52
2019-03-05T08:06:11.019Z,52
2019-03-05T08:07:11.201Z,52
2019-03-05T08:08:11.080Z,52
2019-03-05T08:09:11.012Z,53
2019-03-05T08:10:11.000Z,52
2019-03-05T08:11:11.030Z,53
2019-03-05T08:12:11.030Z,52
2019-03-05T08:13:11.114Z,53
2019-03-05T08:14:11.094Z,53
2019-03-05T08:15:11.127Z,53
2019-03-05T08:16:11.170Z,52
2019-03-05T08:17:11.218Z,52
2019-03-05T08:18:13.726Z,52
2019-03-05T08:19:11.302Z,52
2019-03-05T08:20:11.301Z,52
2019-03-05T08:21:11.346Z,52
2019-03-05T08:22:11.393Z,52
2019-03-05T08:23:11.408Z,53
2019-03-05T08:24:11.468Z,53
2019-03-05T08:25:11.448Z,53
2019-03-05T08:26:11.486Z,52
2019-03-05T08:27:11.520Z,51
2019-03-05T08:28:11.575Z,51
2019-03-05T08:29:11.558Z,51
2019-03-05T08:30:14.415Z,51
2019-03-05T08:31:11.698Z,51
2019-03-05T08:32:11.654Z,51
2019-03-05T08:33:11.765Z,51
2019-03-05T08:34:11.740Z,51
2019-03-05T08:35:11.755Z,52
2019-03-05T08:36:11.749Z,52
2019-03-05T08:37:13.414Z,52
2019-03-05T08:38:11.842Z,51
2019-03-05T08:39:11.825Z,50
2019-03-05T08:40:11.864Z,52
2019-03-05T08:41:11.911Z,51
2019-03-05T08:42:11.877Z,51
2019-03-05T08:43:11.907Z,50
2019-03-05T08:44:11.920Z,50
2019-03-05T08:45:11.925Z,49
2019-03-05T08:46:11.950Z,49
2019-03-05T08:47:11.921Z,49
2019-03-05T08:48:11.983Z,49
2019-03-05T08:49:11.965Z,49
2019-03-05T08:50:11.983Z,50
2019-03-05T08:51:12.022Z,49
2019-03-05T08:52:12.013Z,49
2019-03-05T08:53:12.031Z,49
2019-03-05T08:54:12.083Z,48
2019-03-05T08:55:12.059Z,49
2019-03-05T08:56:12.104Z,48
2019-03-05T08:57:12.082Z,48
2019-03-05T08:58:12.146Z,49
2019-03-05T08:59:12.153Z,47
2019-03-05T09:00:12.137Z,46
2019-03-05T09:01:12.150Z,46
2019-03-05T09:02:12.136Z,46
2019-03-05T09:03:12.144Z,45
2019-03-05T09:04:12.130Z,46
2019-03-05T09:05:12.166Z,45
2019-03-05T09:06:12.187Z,45
2019-03-05T09:07:12.148Z,45
2019-03-05T09:08:12.176Z,45
2019-03-05T09:09:12.183Z,45
2019-03-05T09:10:12.209Z,45
2019-03-05T09:11:12.150Z,45
2019-03-05T09:12:12.316Z,45
2019-03-05T09:13:12.214Z,45
2019-03-05T09:14:12.274Z,46
2019-03-05T09:15:12.216Z,45
2019-03-05T09:16:12.232Z,45
2019-03-05T09:17:12.208Z,45
2019-03-05T09:18:12.212Z,46
2019-03-05T09:19:12.260Z,45
2019-03-05T09:20:12.302Z,44
2019-03-05T09:21:12.332Z,45
2019-03-05T09:22:12.442Z,45
2019-03-05T09:23:12.404Z,45
2019-03-05T09:24:12.420Z,45
2019-03-05T09:25:13.499Z,46
2019-03-05T09:26:13.484Z,46
2019-03-05T09:27:12.485Z,45
2019-03-05T09:28:12.577Z,45
2019-03-05T09:29:12.620Z,44
2019-03-05T09:30:12.663Z,45
2019-03-05T09:31:12.747Z,45
2019-03-05T09:32:12.716Z,46
2019-03-05T09:33:12.738Z,46
2019-03-05T09:34:12.748Z,46
2019-03-05T09:35:12.810Z,46
2019-03-05T09:36:12.859Z,46
2019-03-05T09:37:12.835Z,47
2019-03-05T09:38:12.864Z,47
2019-03-05T09:39:12.908Z,47
2019-03-05T09:40:12.954Z,47
2019-03-05T09:41:12.956Z,47
2019-03-05T09:42:12.983Z,47
2019-03-05T09:43:13.057Z,47
2019-03-05T09:44:13.081Z,47
2019-03-05T09:45:13.116Z,47
2019-03-05T09:46:13.144Z,48
2019-03-05T09:47:13.146Z,48
2019-03-05T09:48:13.267Z,48
2019-03-05T09:49:13.265Z,48
2019-03-05T09:50:13.359Z,49
2019-03-05T09:51:13.314Z,48
2019-03-05T09:52:13.342Z,49
2019-03-05T09:53:13.348Z,48
2019-03-05T09:54:13.350Z,49
2019-03-05T09:55:13.405Z,49
2019-03-05T09:56:13.428Z,48
2019-03-05T09:57:13.465Z,49
2019-03-05T09:58:13.496Z,49
2019-03-05T09:59:13.486Z,49
2019-03-05T10:00:13.499Z,49
2019-03-05T10:01:13.530Z,49
2019-03-05T10:02:13.544Z,49
2019-03-05T10:03:13.583Z,50
2019-03-05T10:04:13.600Z,49
2019-03-05T10:05:13.647Z,48
2019-03-05T10:06:13.641Z,50
2019-03-05T10:07:18.775Z,49
2019-03-05T10:08:13.647Z,49
2019-03-05T10:09:13.697Z,49
2019-03-05T10:10:13.667Z,50
2019-03-05T10:11:13.667Z,50
2019-03-05T10:12:13.694Z,51
2019-03-05T10:13:13.874Z,52
2019-03-05T10:14:13.745Z,53
2019-03-05T10:15:13.720Z,52
2019-03-05T10:16:13.820Z,51
2019-03-05T10:17:13.771Z,52
2019-03-05T10:18:13.757Z,52
2019-03-05T10:19:13.806Z,52
2019-03-05T10:20:13.798Z,52
2019-03-05T10:21:13.799Z,52
2019-03-05T10:22:13.872Z,53
2019-03-05T10:23:13.825Z,53
2019-03-05T10:24:13.844Z,51
2019-03-05T10:25:13.894Z,53
2019-03-05T10:26:13.839Z,54
2019-03-05T10:27:13.897Z,53
2019-03-05T10:28:13.895Z,53
2019-03-05T10:29:13.927Z,53
2019-03-05T10:30:24.049Z,53
2019-03-05T10:31:13.904Z,52
2019-03-05T10:32:13.894Z,54
2019-03-05T10:33:13.954Z,52
2019-03-05T10:34:13.947Z,52
2019-03-05T10:35:13.925Z,52
2019-03-05T10:36:13.931Z,51
2019-03-05T10:37:18.828Z,51
2019-03-05T10:38:13.949Z,49
2019-03-05T10:39:13.962Z,49
2019-03-05T10:40:13.923Z,50
2019-03-05T10:41:13.948Z,49
2019-03-05T10:42:13.952Z,49
2019-03-05T10:43:13.962Z,49
2019-03-05T10:44:14.081Z,49
2019-03-05T10:45:14.019Z,49
2019-03-05T10:46:14.071Z,49
2019-03-05T10:47:14.124Z,50
2019-03-05T10:48:14.131Z,51
2019-03-05T10:49:14.205Z,50
2019-03-05T10:50:15.409Z,51
2019-03-05T10:51:14.277Z,51
2019-03-05T10:52:14.324Z,50
2019-03-05T10:53:14.330Z,48
2019-03-05T10:54:14.387Z,51
2019-03-05T10:55:25.669Z,49
2019-03-05T10:56:14.431Z,50
2019-03-05T10:57:14.490Z,49
2019-03-05T10:58:14.507Z,50
2019-03-05T10:59:14.563Z,50
2019-03-05T11:00:14.541Z,51
2019-03-05T11:01:14.593Z,49
2019-03-05T11:02:14.646Z,49
2019-03-05T11:03:14.645Z,48
2019-03-05T11:04:14.686Z,49
2019-03-05T11:05:14.742Z,49
2019-03-05T11:06:14.755Z,50
2019-03-05T11:07:14.805Z,49
2019-03-05T11:08:14.816Z,48
2019-03-05T11:09:14.861Z,48
2019-03-05T11:10:14.878Z,48
2019-03-05T11:11:14.882Z,48
2019-03-05T11:12:14.939Z,47
2019-03-05T11:13:14.960Z,47
2019-03-05T11:14:14.940Z,47
2019-03-05T11:15:15.000Z,45
2019-03-05T11:16:14.995Z,46
2019-03-05T11:17:15.052Z,46
2019-03-05T11:18:15.070Z,46
2019-03-05T11:19:15.094Z,46
2019-03-05T11:20:15.130Z,45
2019-03-05T11:21:15.142Z,44
2019-03-05T11:22:15.121Z,45
2019-03-05T11:23:15.169Z,44
2019-03-05T11:24:15.165Z,45
2019-03-05T11:25:15.233Z,46
2019-03-05T11:26:15.343Z,46
2019-03-05T11:27:15.246Z,46
2019-03-05T11:28:15.279Z,46
2019-03-05T11:29:15.426Z,46
2019-03-05T11:30:15.362Z,47
2019-03-05T11:31:15.377Z,46
2019-03-05T11:32:15.419Z,46
2019-03-05T11:33:15.430Z,45
2019-03-05T11:34:15.462Z,45
2019-03-05T11:35:15.474Z,45
2019-03-05T11:36:15.552Z,46
2019-03-05T11:37:15.491Z,47
2019-03-05T11:38:15.525Z,47
2019-03-05T11:39:15.644Z,46
2019-03-05T11:40:20.876Z,45
2019-03-05T11:41:15.592Z,47
2019-03-05T11:42:15.690Z,45
2019-03-05T11:43:15.633Z,45
2019-03-05T11:44:15.617Z,44
2019-03-05T11:45:15.686Z,44
2019-03-05T11:46:15.666Z,44
2019-03-05T11:47:15.692Z,45
2019-03-05T11:48:15.745Z,46
2019-03-05T11:49:15.683Z,46
2019-03-05T11:50:15.698Z,45
2019-03-05T11:51:15.734Z,45
2019-03-05T11:52:15.764Z,44
2019-03-05T11:53:15.854Z,44
2019-03-05T11:54:15.764Z,44
2019-03-05T11:55:15.811Z,45
2019-03-05T11:56:15.772Z,46
2019-03-05T11:57:15.810Z,47
2019-03-05T11:58:15.812Z,46
2019-03-05T11:59:15.829Z,46
2019-03-05T12:00:15.829Z,47
2019-03-05T12:01:15.846Z,48
2019-03-05T12:02:21.622Z,49
2019-03-05T12:03:15.931Z,49
2019-03-05T12:04:15.848Z,50
2019-03-05T12:05:15.954Z,50
2019-03-05T12:06:15.866Z,51
2019-03-05T12:07:15.864Z,52
2019-03-05T12:08:15.876Z,52
2019-03-05T12:09:16.927Z,53
2019-03-05T12:10:15.893Z,53
2019-03-05T12:11:18.416Z,54
2019-03-05T12:12:15.904Z,55
2019-03-05T12:13:16.177Z,56
2019-03-05T12:14:15.912Z,57
2019-03-05T12:15:15.958Z,58
2019-03-05T12:16:15.925Z,59
2019-03-05T12:17:15.978Z,58
2019-03-05T12:18:15.965Z,60
2019-03-05T12:19:15.975Z,61
2019-03-05T12:20:15.960Z,62
2019-03-05T12:21:15.953Z,63
2019-03-05T12:22:15.977Z,62
2019-03-05T12:23:15.989Z,64
2019-03-05T12:24:19.808Z,66
2019-03-05T12:25:15.999Z,66
2019-03-05T12:26:16.018Z,67
2019-03-05T12:27:16.015Z,67
2019-03-05T12:28:16.033Z,68
2019-03-05T12:29:16.039Z,69
2019-03-05T12:30:16.070Z,69
2019-03-05T12:31:16.073Z,69
2019-03-05T12:32:16.036Z,67
2019-03-05T12:33:16.080Z,68
2019-03-05T12:34:16.078Z,69
2019-03-05T12:35:16.067Z,70
2019-03-05T12:36:16.107Z,72
2019-03-05T12:37:16.107Z,72
2019-03-05T12:38:16.112Z,73
2019-03-05T12:39:16.081Z,73
2019-03-05T12:40:16.085Z,73
2019-03-05T12:41:16.135Z,73
2019-03-05T12:42:16.142Z,75
2019-03-05T12:43:16.103Z,75
2019-03-05T12:44:16.146Z,75
2019-03-05T12:45:16.150Z,74
2019-03-05T12:46:16.122Z,73
2019-03-05T12:47:16.207Z,74
2019-03-05T12:48:16.108Z,74
2019-03-05T12:49:17.054Z,75
2019-03-05T12:50:16.199Z,76
2019-03-05T12:51:16.157Z,77
2019-03-05T12:52:16.162Z,76
2019-03-05T12:53:16.273Z,76
2019-03-05T12:54:16.238Z,76
2019-03-05T12:55:16.228Z,77
2019-03-05T12:56:23.665Z,77
2019-03-05T12:57:16.256Z,77
2019-03-05T12:58:16.289Z,78
2019-03-05T12:59:16.319Z,79
2019-03-05T13:00:16.318Z,79
2019-03-05T13:01:16.328Z,79
2019-03-05T13:02:16.358Z,79
2019-03-05T13:03:16.338Z,79
2019-03-05T13:04:16.373Z,80
2019-03-05T13:05:18.663Z,80
2019-03-05T13:06:16.406Z,80
2019-03-05T13:07:17.654Z,79
2019-03-05T13:08:16.405Z,78
2019-03-05T13:09:17.658Z,78
2019-03-05T13:10:16.433Z,78
2019-03-05T13:11:16.436Z,78
2019-03-05T13:12:16.448Z,79
2019-03-05T13:13:16.524Z,80
2019-03-05T13:14:16.463Z,80
2019-03-05T13:15:16.472Z,81
2019-03-05T13:16:16.489Z,82
2019-03-05T13:17:16.468Z,83
2019-03-05T13:18:16.523Z,83
2019-03-05T13:19:17.572Z,84
2019-03-05T13:20:16.507Z,83
2019-03-05T13:21:18.382Z,84
2019-03-05T13:22:16.502Z,83
2019-03-05T13:23:16.514Z,83
2019-03-05T13:24:16.512Z,82
2019-03-05T13:25:16.492Z,82
2019-03-05T13:26:16.544Z,82
2019-03-05T13:27:18.695Z,82
2019-03-05T13:28:16.581Z,82
2019-03-05T13:29:19.111Z,82
2019-03-05T13:30:16.573Z,83
2019-03-05T13:31:16.594Z,83
2019-03-05T13:32:20.369Z,82
2019-03-05T13:33:16.684Z,82
2019-03-05T13:34:17.692Z,82
2019-03-05T13:35:16.727Z,82
2019-03-05T13:36:16.934Z,84
2019-03-05T13:37:16.815Z,84
2019-03-05T13:38:16.827Z,84
2019-03-05T13:39:18.043Z,84
2019-03-05T13:40:16.902Z,85
2019-03-05T13:41:16.943Z,85
2019-03-05T13:42:16.960Z,84
2019-03-05T13:43:16.993Z,84
2019-03-05T13:44:17.054Z,84
2019-03-05T13:45:17.041Z,85
2019-03-05T13:46:17.196Z,85
2019-03-05T13:47:17.237Z,86
2019-03-05T13:48:19.180Z,87
2019-03-05T13:49:17.932Z,88
2019-03-05T13:50:17.232Z,88
2019-03-05T13:51:19.408Z,87
2019-03-05T13:52:17.309Z,86
2019-03-05T13:53:22.341Z,86
2019-03-05T13:54:17.334Z,85
2019-03-05T13:55:17.382Z,85
2019-03-05T13:56:17.401Z,85
2019-03-05T13:57:18.512Z,85
2019-03-05T13:58:17.442Z,85
2019-03-05T13:59:17.477Z,85
2019-03-05T14:00:17.513Z,84
2019-03-05T14:01:17.579Z,84
2019-03-05T14:02:17.585Z,85
2019-03-05T14:03:17.717Z,84
2019-03-05T14:04:17.674Z,83
2019-03-05T14:05:17.647Z,82
2019-03-05T14:06:17.676Z,82
2019-03-05T14:07:17.741Z,82
2019-03-05T14:08:17.748Z,83
2019-03-05T14:09:17.760Z,83
2019-03-05T14:10:17.753Z,82
2019-03-05T14:11:17.778Z,81
2019-03-05T14:12:17.786Z,81
2019-03-05T14:13:17.911Z,80
2019-03-05T14:14:17.871Z,81
2019-03-05T14:15:17.842Z,81